createdAt,value
2018-09-11T00:02:12.329Z,101233.44
2018-09-11T00:04:41.006Z,101229.89
2018-09-11T00:07:09.699Z,101224.50
2018-09-11T00:09:39.178Z,101221.81
2018-09-11T00:12:07.928Z,101219.98
2018-09-11T00:14:36.681Z,101213.73
2018-09-11T00:17:05.722Z,101211.55
2018-09-11T00:19:34.449Z,101208.86
2018-09-11T00:22:03.148Z,101210.69
2018-09-11T00:24:31.873Z,101209.69
2018-09-11T00:27:00.572Z,101204.83
2018-09-11T00:29:29.310Z,101202.13
2018-09-11T00:31:58.227Z,101204.41
2018-09-11T00:34:27.084Z,101199.51
2018-09-11T00:36:56.099Z,101195.95
2018-09-11T00:39:24.834Z,101201.72
2018-09-11T00:41:53.561Z,101198.16
2018-09-11T00:44:22.227Z,101200.86
2018-09-11T00:46:50.972Z,101199.99
2018-09-11T00:49:19.844Z,101201.86
2018-09-11T00:51:48.642Z,101193.02
2018-09-11T00:54:17.329Z,101199.27
2018-09-11T00:56:46.044Z,101201.97
2018-09-11T00:59:14.759Z,101200.62
2018-09-11T01:01:43.462Z,101202.45
2018-09-11T01:04:12.386Z,101202.97
2018-09-11T01:06:41.071Z,101205.66
2018-09-11T01:09:10.583Z,101199.41
2018-09-11T01:11:39.291Z,101192.19
2018-09-11T01:14:07.963Z,101194.89
2018-09-11T01:16:36.641Z,101195.37
2018-09-11T01:19:05.387Z,101189.61
2018-09-11T01:21:34.095Z,101190.47
2018-09-11T01:24:02.918Z,101185.57
2018-09-11T01:26:31.636Z,101191.33
2018-09-11T01:29:00.357Z,101184.70
2018-09-11T01:31:29.054Z,101186.43
2018-09-11T01:33:57.767Z,101185.57
2018-09-11T01:36:26.548Z,101181.05
2018-09-11T01:38:55.249Z,101184.22
2018-09-11T01:41:24.322Z,101185.57
2018-09-11T01:43:53.211Z,101177.98
2018-09-11T01:46:21.955Z,101178.84
2018-09-11T01:48:50.617Z,101181.53
2018-09-11T01:51:19.274Z,101177.49
2018-09-11T01:53:47.965Z,101179.70
2018-09-11T01:56:16.635Z,101170.77
2018-09-11T01:58:45.317Z,101171.63
2018-09-11T02:01:13.998Z,101170.28
2018-09-11T02:03:42.724Z,101170.28
2018-09-11T02:06:11.413Z,101173.34
2018-09-11T02:08:40.117Z,101169.31
2018-09-11T02:11:08.771Z,101169.80
2018-09-11T02:13:37.437Z,101172.83
2018-09-11T02:16:06.282Z,101182.25
2018-09-11T02:18:35.006Z,101175.04
2018-09-11T02:21:03.972Z,101171.86
2018-09-11T02:23:32.650Z,101172.23
2018-09-11T02:26:01.369Z,101163.64
2018-09-11T02:28:30.071Z,101159.26
2018-09-11T02:30:58.748Z,101164.02
2018-09-11T02:33:27.512Z,101156.35
2018-09-11T02:35:56.216Z,101167.12
2018-09-11T02:38:24.925Z,101157.70
2018-09-11T02:40:53.565Z,101157.19
2018-09-11T02:43:22.272Z,101149.97
2018-09-11T02:45:51.430Z,101152.66
2018-09-11T02:48:20.115Z,101147.65
2018-09-11T02:50:48.818Z,101140.06
2018-09-11T02:53:17.494Z,101136.39
2018-09-11T02:55:46.283Z,101138.95
2018-09-11T02:58:14.900Z,101141.64
2018-09-11T03:00:43.603Z,101130.87
2018-09-11T03:03:12.315Z,101134.91
2018-09-11T03:05:41.036Z,101141.02
2018-09-11T03:08:09.708Z,101133.08
2018-09-11T03:10:38.356Z,101139.67
2018-09-11T03:13:07.290Z,101136.63
2018-09-11T03:15:35.987Z,101137.48
2018-09-11T03:18:04.752Z,101128.89
2018-09-11T03:20:35.040Z,101126.20
2018-09-11T03:23:03.731Z,101120.81
2018-09-11T03:25:32.454Z,101118.98
2018-09-11T03:28:01.138Z,101115.43
2018-09-11T03:30:29.840Z,101111.05
2018-09-11T03:32:58.478Z,101110.56
2018-09-11T03:35:27.154Z,101106.52
2018-09-11T03:37:55.843Z,101100.62
2018-09-11T03:40:24.561Z,101100.28
2018-09-11T03:42:53.251Z,101096.58
2018-09-11T03:45:21.959Z,101096.58
2018-09-11T03:47:50.590Z,101099.27
2018-09-11T03:50:19.423Z,101099.27
2018-09-11T03:52:48.132Z,101099.80
2018-09-11T03:55:16.847Z,101094.75
2018-09-11T03:57:45.613Z,101098.79
2018-09-11T04:00:14.297Z,101100.62
2018-09-11T04:02:42.944Z,101097.92
2018-09-11T04:05:11.630Z,101086.58
2018-09-11T04:07:40.299Z,101083.11
2018-09-11T04:10:08.992Z,101084.46
2018-09-11T04:12:37.711Z,101086.19
2018-09-11T04:15:06.508Z,101081.28
2018-09-11T04:17:40.559Z,101076.38
2018-09-11T04:20:09.316Z,101079.94
2018-09-11T04:22:39.197Z,101080.94
2018-09-11T04:25:08.223Z,101079.94
2018-09-11T04:27:36.903Z,101081.77
2018-09-11T04:30:05.719Z,101075.03
2018-09-11T04:32:34.402Z,101073.20
2018-09-11T04:35:03.186Z,101067.48
2018-09-11T04:37:32.173Z,101066.47
2018-09-11T04:40:00.938Z,101060.23
2018-09-11T04:42:29.649Z,101066.47
2018-09-11T04:44:58.323Z,101064.64
2018-09-11T04:47:27.065Z,101055.22
2018-09-11T04:49:55.711Z,101059.26
2018-09-11T04:52:24.394Z,101051.03
2018-09-11T04:54:53.081Z,101056.08
2018-09-11T04:57:21.815Z,101054.59
2018-09-11T04:59:50.453Z,101046.99
2018-09-11T05:02:19.248Z,101057.28
2018-09-11T05:04:47.974Z,101059.97
2018-09-11T05:07:16.706Z,101060.34
2018-09-11T05:09:45.438Z,101057.66
2018-09-11T05:12:14.308Z,101060.34
2018-09-11T05:14:43.889Z,101049.09
2018-09-11T05:17:12.627Z,101047.23
2018-09-11T05:19:41.373Z,101050.30
2018-09-11T05:22:10.034Z,101057.89
2018-09-11T05:24:38.671Z,101057.41
2018-09-11T05:27:07.452Z,101054.70
2018-09-11T05:29:36.142Z,101057.75
2018-09-11T05:32:04.986Z,101045.28
2018-09-11T05:34:33.656Z,101050.52
2018-09-11T05:37:02.630Z,101051.39
2018-09-11T05:39:31.437Z,101049.03
2018-09-11T05:42:00.169Z,101053.08
2018-09-11T05:44:28.915Z,101056.14
2018-09-11T05:46:57.621Z,101058.84
2018-09-11T05:49:26.353Z,101052.97
2018-09-11T05:51:55.118Z,101046.72
2018-09-11T05:54:23.953Z,101047.09
2018-09-11T05:56:52.719Z,101045.11
2018-09-11T05:59:21.454Z,101049.53
2018-09-11T06:01:50.286Z,101044.63
2018-09-11T06:04:19.334Z,101053.56
2018-09-11T06:06:48.066Z,101051.70
2018-09-11T06:09:16.822Z,101060.64
2018-09-11T06:11:45.534Z,101057.95
2018-09-11T06:14:14.244Z,101064.69
2018-09-11T06:16:43.214Z,101069.10
2018-09-11T06:19:12.132Z,101075.35
2018-09-11T06:21:40.933Z,101078.87
2018-09-11T06:24:09.950Z,101065.40
2018-09-11T06:26:38.787Z,101055.98
2018-09-11T06:29:07.549Z,101051.11
2018-09-11T06:31:36.391Z,101039.47
2018-09-11T06:34:05.211Z,101038.47
2018-09-11T06:36:33.918Z,101030.91
2018-09-11T06:39:02.712Z,101033.59
2018-09-11T06:41:31.441Z,101022.30
2018-09-11T06:44:00.178Z,101014.22
2018-09-11T06:46:29.199Z,101013.73
2018-09-11T06:48:58.049Z,101026.34
2018-09-11T06:51:27.001Z,101012.87
2018-09-11T06:53:56.103Z,101015.94
2018-09-11T06:56:24.942Z,101007.86
2018-09-11T06:58:53.755Z,101017.78
2018-09-11T07:01:22.489Z,101032.48
2018-09-11T07:03:51.362Z,101020.70
2018-09-11T07:06:20.302Z,101018.49
2018-09-11T07:08:49.068Z,101009.44
2018-09-11T07:11:17.817Z,101006.26
2018-09-11T07:13:46.829Z,101005.25
2018-09-11T07:16:15.707Z,100998.52
2018-09-11T07:18:44.421Z,101009.66
2018-09-11T07:21:13.183Z,101009.66
2018-09-11T07:23:41.948Z,101006.83
2018-09-11T07:26:10.812Z,101006.48
2018-09-11T07:28:39.489Z,101008.17
2018-09-11T07:31:08.341Z,100994.22
2018-09-11T07:33:37.025Z,100996.05
2018-09-11T07:36:05.827Z,100998.63
2018-09-11T07:38:34.615Z,100992.87
2018-09-11T07:41:03.703Z,100993.73
2018-09-11T07:43:32.563Z,100991.03
2018-09-11T07:46:01.310Z,100994.70
2018-09-11T07:48:30.046Z,100986.51
2018-09-11T07:50:58.745Z,100985.66
2018-09-11T07:53:27.488Z,100979.41
2018-09-11T07:55:56.353Z,100977.19
2018-09-11T07:58:25.028Z,100977.19
2018-09-11T08:00:53.765Z,100972.66
2018-09-11T08:03:22.899Z,100985.28
2018-09-11T08:05:51.659Z,100986.77
2018-09-11T08:08:20.380Z,100994.36
2018-09-11T08:10:49.125Z,100987.74
2018-09-11T08:13:18.062Z,100987.74
2018-09-11T08:15:46.866Z,100989.09
2018-09-11T08:18:15.682Z,100986.92
2018-09-11T08:20:44.458Z,100987.03
2018-09-11T08:23:13.339Z,100987.89
2018-09-11T08:25:42.283Z,100986.55
2018-09-11T08:28:11.022Z,100983.47
2018-09-11T08:30:39.750Z,100976.74
2018-09-11T08:33:08.523Z,100979.95
2018-09-11T08:35:37.242Z,100973.70
2018-09-11T08:38:05.993Z,100962.56
2018-09-11T08:40:34.806Z,100966.11
2018-09-11T08:43:03.636Z,100957.66
2018-09-11T08:45:32.422Z,100955.48
2018-09-11T08:48:01.495Z,100947.89
2018-09-11T08:50:30.254Z,100948.23
2018-09-11T08:52:58.971Z,100937.98
2018-09-11T08:55:28.057Z,100937.12
2018-09-11T08:57:57.112Z,100945.54
2018-09-11T09:00:26.151Z,100938.31
2018-09-11T09:02:55.029Z,100928.03
2018-09-11T09:05:23.776Z,100927.69
2018-09-11T09:07:52.582Z,100925.48
2018-09-11T09:10:21.859Z,100916.91
2018-09-11T09:12:50.772Z,100905.28
2018-09-11T09:15:19.539Z,100900.75
2018-09-11T09:17:48.326Z,100906.62
2018-09-11T09:20:17.147Z,100912.98
2018-09-11T09:22:45.928Z,100908.34
2018-09-11T09:25:15.014Z,100900.75
2018-09-11T09:27:44.121Z,100893.53
2018-09-11T09:30:12.904Z,100882.77
2018-09-11T09:32:41.902Z,100883.09
2018-09-11T09:35:11.043Z,100882.24
2018-09-11T09:37:40.146Z,100885.80
2018-09-11T09:40:09.341Z,100885.67
2018-09-11T09:42:38.227Z,100880.29
2018-09-11T09:45:08.331Z,100867.31
2018-09-11T09:47:37.091Z,100874.91
2018-09-11T09:50:06.201Z,100868.99
2018-09-11T09:52:35.180Z,100870.00
2018-09-11T09:55:04.140Z,100864.13
2018-09-11T09:57:33.161Z,100867.16
2018-09-11T10:00:02.126Z,100853.70
2018-09-11T10:02:31.080Z,100855.53
2018-09-11T10:04:59.971Z,100850.14
2018-09-11T10:07:28.758Z,100841.57
2018-09-11T10:09:57.684Z,100833.98
2018-09-11T10:12:26.764Z,100821.86
2018-09-11T10:14:55.937Z,100813.29
2018-09-11T10:17:24.693Z,100815.64
2018-09-11T10:19:53.765Z,100811.61
2018-09-11T10:22:22.854Z,100797.77
2018-09-11T10:24:51.903Z,100804.02
2018-09-11T10:27:20.727Z,100813.07
2018-09-11T10:29:49.702Z,100804.98
2018-09-11T10:32:18.453Z,100800.61
2018-09-11T10:34:47.197Z,100789.84
2018-09-11T10:37:15.993Z,100786.63
2018-09-11T10:39:45.038Z,100793.02
2018-09-11T10:42:13.850Z,100786.28
2018-09-11T10:44:42.820Z,100775.14
2018-09-11T10:47:11.607Z,100766.72
2018-09-11T10:49:40.453Z,100762.16
2018-09-11T10:52:09.510Z,100753.86
2018-09-11T10:54:38.267Z,100757.41
2018-09-11T10:57:07.237Z,100747.62
2018-09-11T10:59:35.971Z,100748.14
2018-09-11T11:02:04.981Z,100742.75
2018-09-11T11:04:34.109Z,100743.24
2018-09-11T11:07:03.010Z,100750.46
2018-09-11T11:09:31.750Z,100757.20
2018-09-11T11:12:00.537Z,100750.95
2018-09-11T11:14:29.301Z,100742.02
2018-09-11T11:16:58.419Z,100732.25
2018-09-11T11:19:27.126Z,100729.56
2018-09-11T11:21:55.992Z,100728.21
2018-09-11T11:24:24.785Z,100722.45
2018-09-11T11:26:53.605Z,100711.69
2018-09-11T11:29:22.688Z,100711.84
2018-09-11T11:31:51.400Z,100709.63
2018-09-11T11:34:20.154Z,100709.63
2018-09-11T11:36:49.284Z,100706.56
2018-09-11T11:39:18.009Z,100706.08
2018-09-11T11:41:46.780Z,100703.05
2018-09-11T11:44:15.540Z,100682.00
2018-09-11T11:46:44.299Z,100691.27
2018-09-11T11:49:13.546Z,100688.24
2018-09-11T11:51:42.329Z,100685.55
2018-09-11T11:54:11.085Z,100683.68
2018-09-11T11:56:39.859Z,100683.68
2018-09-11T11:59:08.664Z,100684.20
2018-09-11T12:01:37.489Z,100690.08
2018-09-11T12:04:06.365Z,100688.24
2018-09-11T12:06:35.127Z,100694.97
2018-09-11T12:09:04.415Z,100693.11
2018-09-11T12:11:33.205Z,100679.64
2018-09-11T12:14:01.945Z,100672.58
2018-09-11T12:16:30.725Z,100681.14
2018-09-11T12:18:59.485Z,100682.48
2018-09-11T12:21:28.309Z,100682.00
2018-09-11T12:23:57.066Z,100681.51
2018-09-11T12:26:25.938Z,100669.02
2018-09-11T12:28:54.659Z,100659.59
2018-09-11T12:31:23.518Z,100649.80
2018-09-11T12:33:52.572Z,100645.28
2018-09-11T12:36:21.369Z,100646.29
2018-09-11T12:38:50.229Z,100644.09
2018-09-11T12:41:19.362Z,100659.23
2018-09-11T12:43:48.197Z,100646.29
2018-09-11T12:46:17.196Z,100639.19
2018-09-11T12:48:46.052Z,100642.86
2018-09-11T12:51:14.859Z,100645.55
2018-09-11T12:53:43.778Z,100629.92
2018-09-11T12:56:12.558Z,100620.13
2018-09-11T12:58:41.335Z,100616.09
2018-09-11T13:01:10.166Z,100605.44
2018-09-11T13:03:39.081Z,100600.05
2018-09-11T13:06:07.895Z,100606.45
2018-09-11T13:08:36.710Z,100601.06
2018-09-11T13:11:05.602Z,100592.63
2018-09-11T13:13:34.415Z,100593.11
2018-09-11T13:16:03.252Z,100599.50
2018-09-11T13:18:32.154Z,100584.70
2018-09-11T13:21:00.964Z,100588.33
2018-09-11T13:23:29.748Z,100574.02
2018-09-11T13:25:58.694Z,100560.06
2018-09-11T13:28:27.513Z,100553.00
2018-09-11T13:30:56.417Z,100549.94
2018-09-11T13:33:25.215Z,100538.31
2018-09-11T13:35:54.029Z,100527.05
2018-09-11T13:38:23.016Z,100511.06
2018-09-11T13:40:51.808Z,100499.77
2018-09-11T13:43:20.665Z,100492.22
2018-09-11T13:45:49.521Z,100487.81
2018-09-11T13:48:18.574Z,100485.98
2018-09-11T13:50:47.376Z,100482.43
2018-09-11T13:53:16.179Z,100466.43
2018-09-11T13:55:45.094Z,100471.30
2018-09-11T13:58:13.859Z,100469.62
2018-09-11T14:00:42.923Z,100435.11
2018-09-11T14:03:11.705Z,100426.55
2018-09-11T14:05:40.794Z,100426.55
2018-09-11T14:08:10.056Z,100416.27
2018-09-11T14:10:38.957Z,100416.77
2018-09-11T14:13:07.750Z,100428.75
2018-09-11T14:15:36.948Z,100434.95
2018-09-11T14:18:05.790Z,100433.28
2018-09-11T14:20:34.877Z,100420.80
2018-09-11T14:23:04.172Z,100410.89
2018-09-11T14:25:33.375Z,100416.64
2018-09-11T14:28:02.207Z,100399.63
2018-09-11T14:30:30.960Z,100399.63
2018-09-11T14:32:59.978Z,100382.98
2018-09-11T14:35:28.801Z,100378.59
2018-09-11T14:37:57.638Z,100370.02
2018-09-11T14:40:26.626Z,100364.64
2018-09-11T14:42:55.548Z,100351.17
2018-09-11T14:45:24.301Z,100348.00
2018-09-11T14:47:54.211Z,100344.45
2018-09-11T14:50:23.239Z,100328.30
2018-09-11T14:52:52.372Z,100323.41
2018-09-11T14:55:21.403Z,100317.53
2018-09-11T14:57:50.192Z,100330.99
2018-09-11T15:00:19.375Z,100330.99
2018-09-11T15:02:48.405Z,100329.16
2018-09-11T15:05:17.553Z,100330.99
2018-09-11T15:07:46.477Z,100326.59
2018-09-11T15:10:15.556Z,100320.72
2018-09-11T15:12:44.452Z,100316.31
2018-09-11T15:15:13.578Z,100312.77
2018-09-11T15:17:42.662Z,100305.55
2018-09-11T15:20:11.841Z,100294.94
2018-09-11T15:22:40.933Z,100297.63
2018-09-11T15:25:09.694Z,100272.55
2018-09-11T15:27:38.518Z,100277.08
2018-09-11T15:30:07.383Z,100271.86
2018-09-11T15:32:36.236Z,100284.46
2018-09-11T15:35:05.387Z,100270.15
2018-09-11T15:37:34.242Z,100259.88
2018-09-11T15:40:03.116Z,100251.80
2018-09-11T15:42:32.032Z,100233.97
2018-09-11T15:45:00.903Z,100216.48
2018-09-11T15:47:30.179Z,100198.14
2018-09-11T15:49:59.001Z,100184.84
2018-09-11T15:52:28.227Z,100169.67
2018-09-11T15:54:57.081Z,100166.50
2018-09-11T15:57:25.862Z,100149.98
2018-09-11T15:59:54.856Z,100141.06
2018-09-11T16:02:23.650Z,100135.68
2018-09-11T16:04:52.888Z,100135.68
2018-09-11T16:07:22.046Z,100134.86
2018-09-11T16:09:50.834Z,100120.55
2018-09-11T16:12:19.972Z,100105.88
2018-09-11T16:14:49.015Z,100103.19
2018-09-11T16:17:18.011Z,100088.39
2018-09-11T16:19:47.175Z,100080.97
2018-09-11T16:22:16.378Z,100070.57
2018-09-11T16:24:45.657Z,100072.41
2018-09-11T16:27:14.826Z,100076.08
2018-09-11T16:29:43.665Z,100059.45
2018-09-11T16:32:12.739Z,100058.59
2018-09-11T16:34:41.811Z,100047.83
2018-09-11T16:37:10.638Z,100042.94
2018-09-11T16:39:39.653Z,100041.10
2018-09-11T16:42:08.932Z,100024.47
2018-09-11T16:44:38.014Z,100010.16
2018-09-11T16:47:07.405Z,100011.87
2018-09-11T16:49:36.287Z,100011.87
2018-09-11T16:52:05.673Z,100000.12
2018-09-11T16:54:34.773Z,99990.70
2018-09-11T16:57:04.296Z,99983.12
2018-09-11T16:59:33.445Z,99975.38
2018-09-11T17:02:02.712Z,99966.98
2018-09-11T17:04:31.939Z,99969.17
2018-09-11T17:07:01.148Z,99957.06
2018-09-11T17:09:30.299Z,99945.28
2018-09-11T17:11:59.386Z,99936.72
2018-09-11T17:14:28.216Z,99933.17
2018-09-11T17:16:57.248Z,99926.80
2018-09-11T17:19:26.284Z,99913.84
2018-09-11T17:21:55.631Z,99913.34
2018-09-11T17:24:24.516Z,99900.22
2018-09-11T17:26:53.525Z,99891.33
2018-09-11T17:29:22.577Z,99889.98
2018-09-11T17:31:51.625Z,99888.11
2018-09-11T17:34:20.730Z,99875.68
2018-09-11T17:36:50.007Z,99872.50
2018-09-11T17:39:19.027Z,99878.70
2018-09-11T17:41:48.203Z,99848.28
2018-09-11T17:44:17.221Z,99846.08
2018-09-11T17:46:46.155Z,99838.86
2018-09-11T17:49:15.325Z,99829.44
2018-09-11T17:51:44.443Z,99826.75
2018-09-11T17:54:13.508Z,99807.39
2018-09-11T17:56:42.276Z,99801.69
2018-09-11T17:59:11.448Z,99793.11
2018-09-11T18:01:40.517Z,99798.99
2018-09-11T18:04:09.324Z,99795.45
2018-09-11T18:06:38.512Z,99794.11
2018-09-11T18:09:08.447Z,99783.84
2018-09-11T18:11:37.599Z,99778.81
2018-09-11T18:14:06.488Z,99778.81
2018-09-11T18:16:35.732Z,99775.09
2018-09-11T18:19:04.975Z,99768.90
2018-09-11T18:21:33.809Z,99766.21
2018-09-11T18:24:02.631Z,99768.38
2018-09-11T18:26:31.542Z,99768.05
2018-09-11T18:29:00.596Z,99768.38
2018-09-11T18:31:29.941Z,99754.59
2018-09-11T18:33:59.163Z,99747.88
2018-09-11T18:36:28.533Z,99741.14
2018-09-11T18:38:57.593Z,99744.33
2018-09-11T18:41:26.615Z,99741.64
2018-09-11T18:43:55.854Z,99725.49
2018-09-11T18:46:25.088Z,99733.07
2018-09-11T18:48:54.349Z,99744.68
2018-09-11T18:51:23.624Z,99733.07
2018-09-11T18:53:52.719Z,99751.41
2018-09-11T18:56:21.759Z,99745.17
2018-09-11T18:58:50.674Z,99741.14
2018-09-11T19:01:19.537Z,99748.72
2018-09-11T19:03:48.401Z,99749.21
2018-09-11T19:06:17.532Z,99748.19
2018-09-11T19:08:46.656Z,99741.82
2018-09-11T19:11:15.784Z,99715.91
2018-09-11T19:13:44.692Z,99745.86
2018-09-11T19:16:13.694Z,99742.67
2018-09-11T19:18:42.978Z,99736.80
2018-09-11T19:21:12.008Z,99720.13
2018-09-11T19:23:41.164Z,99720.97
2018-09-11T19:26:10.483Z,99720.48
2018-09-11T19:28:39.757Z,99716.44
2018-09-11T19:31:08.981Z,99728.05
2018-09-11T19:33:38.236Z,99716.80
2018-09-11T19:36:07.252Z,99719.98
2018-09-11T19:38:37.681Z,99700.79
2018-09-11T19:41:06.988Z,99696.26
2018-09-11T19:43:35.842Z,99697.43
2018-09-11T19:46:05.155Z,99701.33
2018-09-11T19:48:35.334Z,99691.73
2018-09-11T19:51:04.202Z,99687.20
2018-09-11T19:53:33.086Z,99692.27
2018-09-11T19:56:01.965Z,99699.67
2018-09-11T19:58:30.858Z,99690.11
2018-09-11T20:00:59.696Z,99691.28
2018-09-11T20:03:28.580Z,99695.14
2018-09-11T20:05:57.477Z,99683.24
2018-09-11T20:08:26.388Z,99686.11
2018-09-11T20:10:55.243Z,99687.81
2018-09-11T20:13:24.028Z,99674.70
2018-09-11T20:15:52.836Z,99672.33
2018-09-11T20:18:21.769Z,99670.00
2018-09-11T20:20:50.644Z,99679.09
2018-09-11T20:23:19.450Z,99681.79
2018-09-11T20:25:48.283Z,99682.96
2018-09-11T20:28:17.219Z,99686.00
2018-09-11T20:30:46.134Z,99682.28
2018-09-11T20:33:14.946Z,99673.22
2018-09-11T20:35:43.794Z,99673.05
2018-09-11T20:38:12.637Z,99679.27
2018-09-11T20:40:41.544Z,99676.94
2018-09-11T20:43:10.403Z,99670.20
2018-09-11T20:45:39.213Z,99664.64
2018-09-11T20:48:08.066Z,99664.15
2018-09-11T20:50:36.900Z,99675.27
2018-09-11T20:53:05.803Z,99691.25
2018-09-11T20:55:34.669Z,99696.13
2018-09-11T20:58:03.869Z,99685.37
2018-09-11T21:00:32.699Z,99680.66
2018-09-11T21:03:01.631Z,99685.54
2018-09-11T21:05:30.473Z,99688.59
2018-09-11T21:07:59.466Z,99686.71
2018-09-11T21:10:28.310Z,99683.88
2018-09-11T21:12:57.152Z,99698.69
2018-09-11T21:15:25.959Z,99689.08
2018-09-11T21:17:54.797Z,99704.74
2018-09-11T21:20:23.627Z,99710.98
2018-09-11T21:22:52.424Z,99703.22
2018-09-11T21:25:21.325Z,99694.64
2018-09-11T21:27:50.180Z,99703.58
2018-09-11T21:30:19.034Z,99699.03
2018-09-11T21:32:47.794Z,99706.62
2018-09-11T21:35:16.620Z,99693.16
2018-09-11T21:37:45.435Z,99698.01
2018-09-11T21:40:14.261Z,99698.36
2018-09-11T21:42:43.081Z,99705.45
2018-09-11T21:45:12.046Z,99704.10
2018-09-11T21:47:40.873Z,99717.89
2018-09-11T21:50:09.748Z,99716.05
2018-09-11T21:52:38.551Z,99726.31
2018-09-11T21:55:07.388Z,99723.98
2018-09-11T21:57:36.261Z,99722.63
2018-09-11T22:00:07.320Z,99724.30
2018-09-11T22:02:36.193Z,99723.80
2018-09-11T22:05:06.743Z,99738.12
2018-09-11T22:07:35.857Z,99735.74
2018-09-11T22:10:05.864Z,99738.44
2018-09-11T22:12:34.642Z,99744.53
2018-09-11T22:15:03.702Z,99737.27
2018-09-11T22:17:32.491Z,99739.64
2018-09-11T22:20:01.276Z,99740.31
2018-09-11T22:22:30.047Z,99750.09
2018-09-11T22:24:58.819Z,99753.28
2018-09-11T22:27:27.605Z,99752.79
2018-09-11T22:29:56.430Z,99750.41
2018-09-11T22:32:25.195Z,99760.20
2018-09-11T22:34:54.099Z,99765.59
2018-09-11T22:37:22.855Z,99752.97
2018-09-11T22:39:51.613Z,99764.23
2018-09-11T22:42:20.378Z,99754.98
2018-09-11T22:44:49.133Z,99762.72
2018-09-11T22:47:17.933Z,99758.17
2018-09-11T22:49:46.690Z,99753.28
2018-09-11T22:52:15.504Z,99750.09
2018-09-11T22:54:44.319Z,99752.79
2018-09-11T22:57:13.106Z,99758.17
2018-09-11T22:59:41.963Z,99757.33
2018-09-11T23:02:10.714Z,99761.37
2018-09-11T23:04:39.520Z,99755.13
2018-09-11T23:07:08.305Z,99760.52
2018-09-11T23:09:37.046Z,99765.59
2018-09-11T23:12:05.836Z,99771.47
2018-09-11T23:14:34.539Z,99777.35
2018-09-11T23:17:03.294Z,99768.10
2018-09-11T23:19:32.108Z,99769.45
2018-09-11T23:22:01.172Z,99767.25
2018-09-11T23:24:29.898Z,99764.73
2018-09-11T23:26:58.696Z,99771.96
2018-09-11T23:29:27.434Z,99767.07
2018-09-11T23:31:56.197Z,99779.20
2018-09-11T23:34:24.941Z,99776.67
2018-09-11T23:36:53.700Z,99783.91
2018-09-11T23:39:22.440Z,99783.55
2018-09-11T23:41:51.352Z,99790.28
2018-09-11T23:44:20.163Z,99791.31
2018-09-11T23:46:48.926Z,99789.11
2018-09-11T23:49:17.675Z,99792.12
2018-09-11T23:51:46.420Z,99782.70
2018-09-11T23:54:15.195Z,99788.08
2018-09-11T23:56:44.036Z,99784.19
2018-09-11T23:59:12.832Z,99792.80
